sensor_id;sensor_type;location;lat;lon;timestamp;pressure;altitude;pressure_sealevel;temperature;humidity
42887;BME280;29032;56.028;92.904;2023-03-01T00:02:56;99027.25;;;-0.18;41.93
42887;BME280;29032;56.028;92.904;2023-03-01T00:07:59;99054.94;;;-0.28;42.71
42887;BME280;29032;56.028;92.904;2023-03-01T00:13:01;99070.91;;;-0.32;43.11
42887;BME280;29032;56.028;92.904;2023-03-01T00:18:04;99082.56;;;-0.42;44.47
42887;BME280;29032;56.028;92.904;2023-03-01T00:23:07;99085.22;;;-0.54;45.22
42887;BME280;29032;56.028;92.904;2023-03-01T00:28:10;99106.88;;;-0.61;46.62
42887;BME280;29032;56.028;92.904;2023-03-01T00:33:12;99099.63;;;-0.64;47.67
42887;BME280;29032;56.028;92.904;2023-03-01T00:38:15;99107.38;;;-0.63;47.36
42887;BME280;29032;56.028;92.904;2023-03-01T00:43:18;99142.34;;;-0.63;48.20
42887;BME280;29032;56.028;92.904;2023-03-01T00:48:20;99148.34;;;-0.59;48.77
42887;BME280;29032;56.028;92.904;2023-03-01T00:53:24;99161.53;;;-0.43;48.33
42887;BME280;29032;56.028;92.904;2023-03-01T00:58:26;99174.53;;;-0.38;49.32
42887;BME280;29032;56.028;92.904;2023-03-01T01:03:28;99179.59;;;-0.31;49.50
42887;BME280;29032;56.028;92.904;2023-03-01T01:08:32;99189.25;;;-0.15;49.47
42887;BME280;29032;56.028;92.904;2023-03-01T01:13:34;99202.44;;;-0.19;50.45
42887;BME280;29032;56.028;92.904;2023-03-01T01:18:36;99212.25;;;-0.12;50.72
42887;BME280;29032;56.028;92.904;2023-03-01T01:23:41;99213.34;;;-0.04;51.10
42887;BME280;29032;56.028;92.904;2023-03-01T01:28:44;99219.84;;;-0.07;51.35
42887;BME280;29032;56.028;92.904;2023-03-01T01:33:46;99233.91;;;0.06;51.50
42887;BME280;29032;56.028;92.904;2023-03-01T01:38:50;99235.16;;;0.05;52.25
42887;BME280;29032;56.028;92.904;2023-03-01T01:44:11;99238.47;;;0.09;50.31
42887;BME280;29032;56.028;92.904;2023-03-01T01:49:19;99254.97;;;0.09;51.89
42887;BME280;29032;56.028;92.904;2023-03-01T01:54:29;99260.34;;;-0.02;52.88
42887;BME280;29032;56.028;92.904;2023-03-01T01:59:34;99268.75;;;-0.11;53.52
42887;BME280;29032;56.028;92.904;2023-03-01T02:04:36;99283.41;;;-0.20;53.51
42887;BME280;29032;56.028;92.904;2023-03-01T02:09:41;99287.19;;;-0.17;53.65
42887;BME280;29032;56.028;92.904;2023-03-01T02:14:44;99308.91;;;-0.19;54.06
42887;BME280;29032;56.028;92.904;2023-03-01T02:19:55;99306.34;;;-0.03;52.76
42887;BME280;29032;56.028;92.904;2023-03-01T02:25:12;99316.44;;;0.06;52.85
42887;BME280;29032;56.028;92.904;2023-03-01T02:30:19;99336.16;;;0.04;52.15
42887;BME280;29032;56.028;92.904;2023-03-01T02:35:22;99332.41;;;0.02;52.45
42887;BME280;29032;56.028;92.904;2023-03-01T02:40:25;99334.47;;;0.07;51.73
42887;BME280;29032;56.028;92.904;2023-03-01T02:45:28;99353.22;;;0.09;52.18
42887;BME280;29032;56.028;92.904;2023-03-01T02:50:51;99348.03;;;0.16;50.66
42887;BME280;29032;56.028;92.904;2023-03-01T02:55:55;99356.47;;;0.07;52.93
42887;BME280;29032;56.028;92.904;2023-03-01T03:00:59;99365.09;;;0.20;52.98
42887;BME280;29032;56.028;92.904;2023-03-01T03:06:01;99359.41;;;0.03;53.49
42887;BME280;29032;56.028;92.904;2023-03-01T03:11:05;99368.44;;;-0.37;54.90
42887;BME280;29032;56.028;92.904;2023-03-01T03:16:10;99365.72;;;-0.72;56.26
42887;BME280;29032;56.028;92.904;2023-03-01T03:21:12;99364.97;;;-0.72;56.78
42887;BME280;29032;56.028;92.904;2023-03-01T03:26:15;99375.09;;;-0.43;56.25
42887;BME280;29032;56.028;92.904;2023-03-01T03:31:18;99363.97;;;-0.14;55.50
42887;BME280;29032;56.028;92.904;2023-03-01T03:36:22;99375.97;;;0.09;55.07
42887;BME280;29032;56.028;92.904;2023-03-01T03:41:24;99379.66;;;0.26;54.46
42887;BME280;29032;56.028;92.904;2023-03-01T03:46:28;99371.88;;;0.51;53.81
42887;BME280;29032;56.028;92.904;2023-03-01T03:51:30;99380.00;;;0.66;53.50
42887;BME280;29032;56.028;92.904;2023-03-01T03:56:32;99377.66;;;0.84;52.82
42887;BME280;29032;56.028;92.904;2023-03-01T04:01:36;99380.75;;;0.98;52.38
42887;BME280;29032;56.028;92.904;2023-03-01T04:06:38;99386.72;;;0.59;53.30
42887;BME280;29032;56.028;92.904;2023-03-01T04:11:40;99367.69;;;0.29;54.13
42887;BME280;29032;56.028;92.904;2023-03-01T04:16:43;99368.38;;;0.24;54.75
42887;BME280;29032;56.028;92.904;2023-03-01T04:21:45;99366.81;;;0.44;53.97
42887;BME280;29032;56.028;92.904;2023-03-01T04:26:48;99374.56;;;0.71;53.48
42887;BME280;29032;56.028;92.904;2023-03-01T04:31:51;99368.41;;;0.87;52.93
42887;BME280;29032;56.028;92.904;2023-03-01T04:36:53;99370.81;;;0.74;52.92
42887;BME280;29032;56.028;92.904;2023-03-01T04:41:55;99350.38;;;0.55;53.21
42887;BME280;29032;56.028;92.904;2023-03-01T04:46:59;99370.16;;;0.91;52.38
42887;BME280;29032;56.028;92.904;2023-03-01T04:52:01;99373.56;;;0.74;53.38
42887;BME280;29032;56.028;92.904;2023-03-01T04:57:04;99375.97;;;0.93;52.80
42887;BME280;29032;56.028;92.904;2023-03-01T05:02:08;99378.63;;;1.19;51.74
42887;BME280;29032;56.028;92.904;2023-03-01T05:24:49;99378.34;;;1.59;47.82
42887;BME280;29032;56.028;92.904;2023-03-01T05:29:55;99382.06;;;1.51;47.10
42887;BME280;29032;56.028;92.904;2023-03-01T05:34:57;99381.03;;;1.42;47.27
42887;BME280;29032;56.028;92.904;2023-03-01T05:40:01;99375.50;;;1.42;47.33
42887;BME280;29032;56.028;92.904;2023-03-01T05:45:04;99381.50;;;1.35;46.82
42887;BME280;29032;56.028;92.904;2023-03-01T05:50:06;99375.41;;;1.20;45.93
42887;BME280;29032;56.028;92.904;2023-03-01T05:55:10;99387.09;;;1.09;46.80
42887;BME280;29032;56.028;92.904;2023-03-01T06:00:14;99380.31;;;1.05;47.52
42887;BME280;29032;56.028;92.904;2023-03-01T06:05:17;99379.03;;;1.00;48.24
42887;BME280;29032;56.028;92.904;2023-03-01T06:10:21;99371.56;;;1.06;48.43
42887;BME280;29032;56.028;92.904;2023-03-01T06:15:24;99366.84;;;1.18;48.57
42887;BME280;29032;56.028;92.904;2023-03-01T06:20:28;99369.22;;;1.36;47.68
42887;BME280;29032;56.028;92.904;2023-03-01T06:25:32;99367.97;;;1.37;47.58
42887;BME280;29032;56.028;92.904;2023-03-01T06:30:34;99364.94;;;1.35;48.13
42887;BME280;29032;56.028;92.904;2023-03-01T06:35:36;99365.97;;;1.38;47.06
42887;BME280;29032;56.028;92.904;2023-03-01T06:40:40;99368.75;;;1.43;47.43
42887;BME280;29032;56.028;92.904;2023-03-01T06:45:42;99362.22;;;1.41;47.23
42887;BME280;29032;56.028;92.904;2023-03-01T06:50:44;99361.03;;;1.59;47.17
42887;BME280;29032;56.028;92.904;2023-03-01T06:55:53;99355.09;;;1.77;47.33
42887;BME280;29032;56.028;92.904;2023-03-01T07:00:55;99353.41;;;1.91;49.09
42887;BME280;29032;56.028;92.904;2023-03-01T07:05:57;99352.59;;;1.79;47.62
42887;BME280;29032;56.028;92.904;2023-03-01T07:11:00;99359.41;;;1.89;47.55
42887;BME280;29032;56.028;92.904;2023-03-01T07:16:03;99356.38;;;1.87;47.90
42887;BME280;29032;56.028;92.904;2023-03-01T07:21:06;99350.13;;;1.92;47.13
42887;BME280;29032;56.028;92.904;2023-03-01T07:26:09;99345.31;;;1.82;46.54
42887;BME280;29032;56.028;92.904;2023-03-01T07:31:12;99342.03;;;1.72;46.99
42887;BME280;29032;56.028;92.904;2023-03-01T07:36:14;99341.06;;;1.81;47.02
42887;BME280;29032;56.028;92.904;2023-03-01T07:41:17;99326.81;;;1.93;46.92
42887;BME280;29032;56.028;92.904;2023-03-01T07:46:20;99337.59;;;1.91;45.99
42887;BME280;29032;56.028;92.904;2023-03-01T07:51:22;99336.84;;;1.91;46.61
42887;BME280;29032;56.028;92.904;2023-03-01T07:56:27;99332.56;;;1.84;46.76
42887;BME280;29032;56.028;92.904;2023-03-01T08:01:29;99326.97;;;1.62;47.42
42887;BME280;29032;56.028;92.904;2023-03-01T08:06:31;99333.47;;;1.59;47.71
42887;BME280;29032;56.028;92.904;2023-03-01T08:11:36;99284.03;;;1.38;47.84
42887;BME280;29032;56.028;92.904;2023-03-01T08:16:38;99329.25;;;1.69;47.89
42887;BME280;29032;56.028;92.904;2023-03-01T08:21:41;99317.75;;;1.76;48.04
42887;BME280;29032;56.028;92.904;2023-03-01T08:26:44;99322.53;;;1.92;47.95
42887;BME280;29032;56.028;92.904;2023-03-01T08:31:46;99319.53;;;2.02;47.47
42887;BME280;29032;56.028;92.904;2023-03-01T08:36:49;99318.28;;;2.03;47.79
42887;BME280;29032;56.028;92.904;2023-03-01T08:41:52;99319.09;;;2.20;46.92
42887;BME280;29032;56.028;92.904;2023-03-01T08:46:55;99320.06;;;2.22;47.06
42887;BME280;29032;56.028;92.904;2023-03-01T08:51:57;99315.06;;;2.21;47.39
42887;BME280;29032;56.028;92.904;2023-03-01T08:57:01;99303.50;;;2.17;47.47
42887;BME280;29032;56.028;92.904;2023-03-01T09:02:03;99303.25;;;2.04;47.70
42887;BME280;29032;56.028;92.904;2023-03-01T09:07:05;99301.03;;;2.19;47.91
42887;BME280;29032;56.028;92.904;2023-03-01T09:12:09;99293.75;;;2.38;47.66
42887;BME280;29032;56.028;92.904;2023-03-01T09:17:11;99284.97;;;2.45;47.21
42887;BME280;29032;56.028;92.904;2023-03-01T09:22:13;99285.75;;;2.46;47.25
42887;BME280;29032;56.028;92.904;2023-03-01T09:27:17;99290.00;;;2.41;47.28
42887;BME280;29032;56.028;92.904;2023-03-01T09:32:19;99283.97;;;2.37;47.11
42887;BME280;29032;56.028;92.904;2023-03-01T09:37:21;99288.97;;;2.33;46.85
42887;BME280;29032;56.028;92.904;2023-03-01T09:42:25;99291.72;;;2.16;47.59
42887;BME280;29032;56.028;92.904;2023-03-01T09:47:31;99281.94;;;2.10;48.20
42887;BME280;29032;56.028;92.904;2023-03-01T09:52:39;99280.44;;;2.25;47.53
42887;BME280;29032;56.028;92.904;2023-03-01T09:57:47;99285.75;;;2.40;46.91
42887;BME280;29032;56.028;92.904;2023-03-01T10:02:54;99281.47;;;2.39;47.90
42887;BME280;29032;56.028;92.904;2023-03-01T10:08:13;99291.25;;;2.51;47.21
42887;BME280;29032;56.028;92.904;2023-03-01T10:13:28;99289.50;;;2.48;47.49
42887;BME280;29032;56.028;92.904;2023-03-01T10:18:33;99278.22;;;2.41;47.70
42887;BME280;29032;56.028;92.904;2023-03-01T10:23:36;99285.97;;;2.37;48.08
42887;BME280;29032;56.028;92.904;2023-03-01T10:28:48;99284.50;;;2.41;47.07
42887;BME280;29032;56.028;92.904;2023-03-01T10:33:53;99284.44;;;2.30;47.75
42887;BME280;29032;56.028;92.904;2023-03-01T10:38:57;99279.94;;;2.33;47.83
42887;BME280;29032;56.028;92.904;2023-03-01T10:44:01;99275.91;;;2.17;48.07
42887;BME280;29032;56.028;92.904;2023-03-01T10:49:10;99290.97;;;2.16;48.52
42887;BME280;29032;56.028;92.904;2023-03-01T10:54:18;99283.44;;;2.16;48.16
42887;BME280;29032;56.028;92.904;2023-03-01T10:59:28;99277.94;;;2.22;48.21
42887;BME280;29032;56.028;92.904;2023-03-01T11:04:31;99278.69;;;2.06;48.77
42887;BME280;29032;56.028;92.904;2023-03-01T11:09:34;99276.91;;;2.03;49.20
42887;BME280;29032;56.028;92.904;2023-03-01T11:14:38;99274.41;;;2.05;49.28
42887;BME280;29032;56.028;92.904;2023-03-01T11:20:00;99272.91;;;2.04;47.91
42887;BME280;29032;56.028;92.904;2023-03-01T11:25:03;99263.88;;;1.92;49.27
42887;BME280;29032;56.028;92.904;2023-03-01T11:30:15;99270.66;;;1.96;48.79
42887;BME280;29032;56.028;92.904;2023-03-01T11:35:22;99271.13;;;1.78;49.32
42887;BME280;29032;56.028;92.904;2023-03-01T11:40:27;99268.09;;;1.70;48.80
42887;BME280;29032;56.028;92.904;2023-03-01T11:45:42;99266.84;;;1.88;48.69
42887;BME280;29032;56.028;92.904;2023-03-01T11:50:47;99253.81;;;1.83;49.65
42887;BME280;29032;56.028;92.904;2023-03-01T11:56:01;99258.59;;;1.99;48.35
42887;BME280;29032;56.028;92.904;2023-03-01T12:01:21;99261.63;;;2.07;48.53
42887;BME280;29032;56.028;92.904;2023-03-01T12:06:51;99273.16;;;2.06;48.15
42887;BME280;29032;56.028;92.904;2023-03-01T12:12:21;99269.91;;;2.13;47.72
42887;BME280;29032;56.028;92.904;2023-03-01T12:17:46;99276.66;;;2.23;47.18
42887;BME280;29032;56.028;92.904;2023-03-01T12:23:13;99274.66;;;2.29;47.76
42887;BME280;29032;56.028;92.904;2023-03-01T12:28:31;99281.97;;;2.43;46.89
42887;BME280;29032;56.028;92.904;2023-03-01T12:33:47;99281.97;;;2.55;46.45
42887;BME280;29032;56.028;92.904;2023-03-01T12:39:02;99291.50;;;2.65;46.32
42887;BME280;29032;56.028;92.904;2023-03-01T12:44:15;99295.28;;;2.56;46.90
42887;BME280;29032;56.028;92.904;2023-03-01T12:49:26;99291.50;;;2.53;46.50
42887;BME280;29032;56.028;92.904;2023-03-01T12:54:31;99296.78;;;2.51;46.39
42887;BME280;29032;56.028;92.904;2023-03-01T12:59:39;99296.53;;;2.61;46.89
42887;BME280;29032;56.028;92.904;2023-03-01T13:05:06;99305.81;;;2.63;46.53
42887;BME280;29032;56.028;92.904;2023-03-01T13:10:20;99301.78;;;2.59;46.32
42887;BME280;29032;56.028;92.904;2023-03-01T13:15:26;99285.47;;;2.38;45.93
42887;BME280;29032;56.028;92.904;2023-03-01T13:20:45;99282.47;;;2.47;46.95
42887;BME280;29032;56.028;92.904;2023-03-01T13:26:09;99289.25;;;2.58;46.16
42887;BME280;29032;56.028;92.904;2023-03-01T13:37:19;99285.22;;;2.75;45.67
42887;BME280;29032;56.028;92.904;2023-03-01T13:42:48;99291.47;;;2.76;45.15
42887;BME280;29032;56.028;92.904;2023-03-01T13:47:54;99291.75;;;2.61;45.21
42887;BME280;29032;56.028;92.904;2023-03-01T13:53:01;99292.50;;;2.62;45.26
42887;BME280;29032;56.028;92.904;2023-03-01T13:58:15;99292.50;;;2.50;44.83
42887;BME280;29032;56.028;92.904;2023-03-01T14:03:19;99287.00;;;2.39;44.93
42887;BME280;29032;56.028;92.904;2023-03-01T14:08:26;99277.72;;;2.42;45.03
42887;BME280;29032;56.028;92.904;2023-03-01T14:13:43;99279.44;;;2.45;44.70
42887;BME280;29032;56.028;92.904;2023-03-01T14:18:56;99272.69;;;2.35;45.05
42887;BME280;29032;56.028;92.904;2023-03-01T14:24:04;99261.13;;;2.25;44.87
42887;BME280;29032;56.028;92.904;2023-03-01T14:29:11;99251.59;;;2.15;44.74
42887;BME280;29032;56.028;92.904;2023-03-01T14:34:24;99256.09;;;2.13;44.67
42887;BME280;29032;56.028;92.904;2023-03-01T14:39:28;99255.88;;;2.11;44.59
42887;BME280;29032;56.028;92.904;2023-03-01T14:44:31;99249.09;;;2.12;45.09
42887;BME280;29032;56.028;92.904;2023-03-01T14:49:34;99257.59;;;2.14;45.00
42887;BME280;29032;56.028;92.904;2023-03-01T14:54:41;99239.53;;;2.24;44.36
42887;BME280;29032;56.028;92.904;2023-03-01T14:59:44;99253.59;;;2.09;43.99
42887;BME280;29032;56.028;92.904;2023-03-01T15:04:48;99248.56;;;2.08;44.33
42887;BME280;29032;56.028;92.904;2023-03-01T15:09:53;99239.53;;;2.02;44.42
42887;BME280;29032;56.028;92.904;2023-03-01T15:14:55;99240.06;;;2.06;44.27
42887;BME280;29032;56.028;92.904;2023-03-01T15:19:58;99233.53;;;2.09;44.50
42887;BME280;29032;56.028;92.904;2023-03-01T15:25:02;99233.03;;;2.21;44.46
42887;BME280;29032;56.028;92.904;2023-03-01T15:30:05;99220.97;;;2.24;44.10
42887;BME280;29032;56.028;92.904;2023-03-01T15:35:41;99216.69;;;2.29;43.55
42887;BME280;29032;56.028;92.904;2023-03-01T15:40:50;99216.97;;;2.25;43.67
42887;BME280;29032;56.028;92.904;2023-03-01T15:45:56;99218.72;;;2.34;43.19
42887;BME280;29032;56.028;92.904;2023-03-01T15:50:59;99207.94;;;2.25;42.64
42887;BME280;29032;56.028;92.904;2023-03-01T15:56:03;99210.94;;;2.33;43.45
42887;BME280;29032;56.028;92.904;2023-03-01T16:01:11;99209.94;;;2.41;42.82
42887;BME280;29032;56.028;92.904;2023-03-01T16:06:14;99205.94;;;2.20;42.01
42887;BME280;29032;56.028;92.904;2023-03-01T16:11:19;99208.19;;;2.16;42.78
42887;BME280;29032;56.028;92.904;2023-03-01T16:16:21;99200.66;;;2.22;42.87
42887;BME280;29032;56.028;92.904;2023-03-01T16:21:24;99194.66;;;2.40;42.19
42887;BME280;29032;56.028;92.904;2023-03-01T16:26:28;99180.56;;;2.55;41.92
42887;BME280;29032;56.028;92.904;2023-03-01T16:31:30;99174.00;;;2.52;41.31
42887;BME280;29032;56.028;92.904;2023-03-01T16:36:32;99167.50;;;2.56;40.92
42887;BME280;29032;56.028;92.904;2023-03-01T16:41:36;99172.72;;;2.65;40.61
42887;BME280;29032;56.028;92.904;2023-03-01T16:52:54;99151.63;;;2.73;38.98
42887;BME280;29032;56.028;92.904;2023-03-01T16:57:57;99156.41;;;2.67;38.44
42887;BME280;29032;56.028;92.904;2023-03-01T17:03:00;99146.38;;;2.64;37.98
42887;BME280;29032;56.028;92.904;2023-03-01T17:08:02;99162.19;;;2.69;38.15
42887;BME280;29032;56.028;92.904;2023-03-01T17:13:05;99149.13;;;2.69;37.87
42887;BME280;29032;56.028;92.904;2023-03-01T17:18:08;99133.56;;;2.66;37.59
42887;BME280;29032;56.028;92.904;2023-03-01T17:23:10;99141.63;;;2.59;37.27
42887;BME280;29032;56.028;92.904;2023-03-01T17:28:14;99137.84;;;2.67;38.33
42887;BME280;29032;56.028;92.904;2023-03-01T17:33:17;99134.06;;;2.70;37.90
42887;BME280;29032;56.028;92.904;2023-03-01T17:38:19;99133.84;;;2.63;37.62
42887;BME280;29032;56.028;92.904;2023-03-01T17:43:22;99130.78;;;2.66;37.68
42887;BME280;29032;56.028;92.904;2023-03-01T17:48:26;99114.28;;;2.55;37.88
42887;BME280;29032;56.028;92.904;2023-03-01T17:53:28;99129.88;;;2.41;38.42
42887;BME280;29032;56.028;92.904;2023-03-01T17:58:32;99131.91;;;2.35;38.27
42887;BME280;29032;56.028;92.904;2023-03-01T18:03:34;99129.88;;;2.30;38.13
42887;BME280;29032;56.028;92.904;2023-03-01T18:08:36;99132.41;;;2.28;38.27
42887;BME280;29032;56.028;92.904;2023-03-01T18:13:40;99138.94;;;2.25;38.77
42887;BME280;29032;56.028;92.904;2023-03-01T18:18:43;99119.88;;;2.27;38.79
42887;BME280;29032;56.028;92.904;2023-03-01T18:23:45;99121.88;;;2.26;38.45
42887;BME280;29032;56.028;92.904;2023-03-01T18:28:49;99123.38;;;2.33;38.09
42887;BME280;29032;56.028;92.904;2023-03-01T18:33:53;99114.06;;;2.31;38.25
42887;BME280;29032;56.028;92.904;2023-03-01T18:38:55;99116.81;;;2.31;38.11
42887;BME280;29032;56.028;92.904;2023-03-01T18:44:00;99090.78;;;2.15;37.81
42887;BME280;29032;56.028;92.904;2023-03-01T18:49:02;99106.31;;;2.29;36.96
42887;BME280;29032;56.028;92.904;2023-03-01T18:54:04;99095.50;;;2.37;36.83
42887;BME280;29032;56.028;92.904;2023-03-01T18:59:08;99089.75;;;2.40;35.87
42887;BME280;29032;56.028;92.904;2023-03-01T19:04:10;99067.16;;;2.36;35.61
42887;BME280;29032;56.028;92.904;2023-03-01T19:09:12;99058.13;;;2.41;35.88
42887;BME280;29032;56.028;92.904;2023-03-01T19:14:16;99045.03;;;2.53;34.07
42887;BME280;29032;56.028;92.904;2023-03-01T19:19:18;99037.72;;;2.56;33.83
42887;BME280;29032;56.028;92.904;2023-03-01T19:24:20;99040.19;;;2.59;32.55
42887;BME280;29032;56.028;92.904;2023-03-01T19:29:24;99034.88;;;2.67;31.95
42887;BME280;29032;56.028;92.904;2023-03-01T19:34:26;99041.69;;;2.66;32.37
42887;BME280;29032;56.028;92.904;2023-03-01T19:39:28;99031.88;;;2.70;31.65
42887;BME280;29032;56.028;92.904;2023-03-01T19:44:32;99029.06;;;2.82;31.40
42887;BME280;29032;56.028;92.904;2023-03-01T19:49:34;99036.06;;;2.83;31.44
42887;BME280;29032;56.028;92.904;2023-03-01T19:54:36;99040.03;;;2.87;31.04
42887;BME280;29032;56.028;92.904;2023-03-01T19:59:40;99033.00;;;2.92;31.13
42887;BME280;29032;56.028;92.904;2023-03-01T20:04:42;99031.22;;;2.94;30.52
42887;BME280;29032;56.028;92.904;2023-03-01T20:09:44;99034.22;;;2.96;30.48
42887;BME280;29032;56.028;92.904;2023-03-01T20:14:48;99020.34;;;3.02;30.52
42887;BME280;29032;56.028;92.904;2023-03-01T20:19:50;99008.56;;;3.01;30.18
42887;BME280;29032;56.028;92.904;2023-03-01T20:24:52;99015.63;;;2.97;29.71
42887;BME280;29032;56.028;92.904;2023-03-01T20:29:55;99007.06;;;3.00;30.14
42887;BME280;29032;56.028;92.904;2023-03-01T20:34:58;99011.09;;;2.99;29.97
42887;BME280;29032;56.028;92.904;2023-03-01T20:40:00;99021.16;;;2.97;30.76
42887;BME280;29032;56.028;92.904;2023-03-01T20:45:04;99016.16;;;2.95;31.64
42887;BME280;29032;56.028;92.904;2023-03-01T20:50:07;99013.44;;;2.90;32.94
42887;BME280;29032;56.028;92.904;2023-03-01T20:55:10;98999.84;;;2.92;33.03
42887;BME280;29032;56.028;92.904;2023-03-01T21:00:14;99007.41;;;2.86;33.06
42887;BME280;29032;56.028;92.904;2023-03-01T21:05:17;98984.56;;;2.85;33.13
42887;BME280;29032;56.028;92.904;2023-03-01T21:10:19;98985.06;;;2.89;32.54
42887;BME280;29032;56.028;92.904;2023-03-01T21:15:23;98979.44;;;3.00;32.80
42887;BME280;29032;56.028;92.904;2023-03-01T21:20:25;98973.59;;;3.10;32.75
42887;BME280;29032;56.028;92.904;2023-03-01T21:25:28;98975.72;;;3.22;31.83
42887;BME280;29032;56.028;92.904;2023-03-01T21:30:33;98979.09;;;3.40;31.80
42887;BME280;29032;56.028;92.904;2023-03-01T21:35:35;98979.81;;;3.46;30.80
42887;BME280;29032;56.028;92.904;2023-03-01T21:40:37;98987.50;;;3.58;31.32
42887;BME280;29032;56.028;92.904;2023-03-01T21:45:41;98981.81;;;3.70;30.06
42887;BME280;29032;56.028;92.904;2023-03-01T21:50:43;98983.09;;;3.69;29.08
42887;BME280;29032;56.028;92.904;2023-03-01T21:55:46;98979.59;;;3.68;28.58
42887;BME280;29032;56.028;92.904;2023-03-01T22:00:49;98967.78;;;3.68;28.59
42887;BME280;29032;56.028;92.904;2023-03-01T22:05:54;98971.72;;;3.72;29.53
42887;BME280;29032;56.028;92.904;2023-03-01T22:10:56;98973.31;;;3.68;27.71
42887;BME280;29032;56.028;92.904;2023-03-01T22:16:00;98955.97;;;3.67;28.24
42887;BME280;29032;56.028;92.904;2023-03-01T22:21:04;98952.94;;;3.65;28.66
42887;BME280;29032;56.028;92.904;2023-03-01T22:26:06;98948.41;;;3.68;28.28
42887;BME280;29032;56.028;92.904;2023-03-01T22:31:10;98938.03;;;3.74;28.81
42887;BME280;29032;56.028;92.904;2023-03-01T22:36:12;98961.50;;;3.67;28.60
42887;BME280;29032;56.028;92.904;2023-03-01T22:41:14;98945.88;;;3.70;27.61
42887;BME280;29032;56.028;92.904;2023-03-01T22:46:18;98951.03;;;3.79;28.19
42887;BME280;29032;56.028;92.904;2023-03-01T22:51:23;98935.97;;;3.80;28.13
42887;BME280;29032;56.028;92.904;2023-03-01T22:56:27;98944.16;;;3.85;27.10
42887;BME280;29032;56.028;92.904;2023-03-01T23:01:31;98934.16;;;3.82;27.14
42887;BME280;29032;56.028;92.904;2023-03-01T23:06:33;98934.81;;;3.70;26.84
42887;BME280;29032;56.028;92.904;2023-03-01T23:11:35;98927.09;;;3.62;27.51
42887;BME280;29032;56.028;92.904;2023-03-01T23:16:39;98929.16;;;3.56;27.25
42887;BME280;29032;56.028;92.904;2023-03-01T23:21:41;98921.66;;;3.51;27.03
42887;BME280;29032;56.028;92.904;2023-03-01T23:26:44;98933.31;;;3.44;27.34
42887;BME280;29032;56.028;92.904;2023-03-01T23:31:47;98922.72;;;3.48;26.78
42887;BME280;29032;56.028;92.904;2023-03-01T23:36:51;98926.28;;;3.43;26.73
42887;BME280;29032;56.028;92.904;2023-03-01T23:41:53;98927.09;;;3.38;26.37
42887;BME280;29032;56.028;92.904;2023-03-01T23:46:56;98948.19;;;3.41;26.91
42887;BME280;29032;56.028;92.904;2023-03-01T23:51:58;98942.41;;;3.39;26.99
42887;BME280;29032;56.028;92.904;2023-03-01T23:57:00;98929.56;;;3.42;26.67
